Main page
METAR-TAF:

METAR-TAF

Airports :

Angers – Loire Airport

Angers, France

latitude: 47-33-37N, longitude: 000-18-44W, elevation: 59 m

Current weather observation

The report was made 29 minutes ago, at 14:00 UTC
Wind 4 kt from the Southeast, varying between East/Southeast and South
Temperature 17°C
Humidity 72%
Pressure 1022 hPa
Visibility 10 km or more
no clouds below 1500 m and no cumulonimbus

METAR: LFJR 141400Z AUTO 14004KT 110V190 CAVOK 17/12 Q1022 NOSIG

Time: 15:29 (14:29 UTC)

Forecast

The report was made 3 hours and 29 minutes ago, at 11:00 UTC
Forecast valid from 14 at 12 UTC to 14 at 21 UTC
Wind 4 kt from the Southeast
Visibility 10 km or more
no clouds below 1500 m and no cumulonimbus
Becoming
from 14 at 18 UTC to 14 at 20 UTC
Visibility: 4000 m
Broken clouds at a height of 500 ft
mist

TAF: LFJR 141100Z 1412/1421 13004KT CAVOK BECMG 1418/1420 4000 BR BKN005

Weather observations and forecasts of more than 4000 airports (METAR and TAF reports).

The available stations are represented by yellow and red dots on the map.

Hover mouse over dot to see the name of the station.

Then click to see weather observations and forecasts.

To change the map : click on the green buttons with a black cross to zoom in, on the green button with a dash to zoom out, or on the green arrows for adjacent maps.


METAR-TAF: